Time;durP1;ratioP1;P1;durP2;ratioP2;P2;SDS_P1;SDS_P2;PMS_P1;PMS_P2;Temp;Humidity;BMP_temperature;BMP_pressure;BME280_temperature;BME280_humidity;BME280_pressure;Samples;Min_cycle;Max_cycle;Signal;HPM_P1;HPM_P2
2022/08/13 00:01:15;;;;;;;9.85;4.80;;;20.10;99.90;;;;;;5075407;28;20049;-69
2022/08/13 00:03:41;;;;;;;7.90;5.75;;;20.10;99.90;;;;;;5075849;28;20110;-67
2022/08/13 00:06:10;;;;;;;7.70;4.95;;;20.00;99.90;;;;;;5058648;28;20056;-70
2022/08/13 00:08:37;;;;;;;14.07;5.35;;;20.00;99.90;;;;;;5075832;28;20055;-69
2022/08/13 00:11:05;;;;;;;9.93;5.05;;;20.00;99.90;;;;;;5075777;28;20055;-68
2022/08/13 00:13:31;;;;;;;7.10;5.03;;;20.00;99.90;;;;;;5075932;28;20045;-69
2022/08/13 00:15:59;;;;;;;6.75;4.88;;;20.00;99.90;;;;;;5075910;28;20059;-71
2022/08/13 00:18:26;;;;;;;6.70;5.20;;;20.00;99.90;;;;;;5076091;28;20105;-67
2022/08/13 00:20:55;;;;;;;8.02;4.75;;;19.90;99.90;;;;;;5075437;28;20135;-69
2022/08/13 00:23:23;;;;;;;5.78;4.97;;;19.90;99.90;;;;;;5075781;28;20418;-70
2022/08/13 00:25:54;;;;;;;6.28;4.85;;;19.90;99.90;;;;;;5075178;28;20473;-70
2022/08/13 00:28:26;;;;;;;7.63;5.15;;;19.90;99.90;;;;;;5075346;28;20091;-68
2022/08/13 00:30:53;;;;;;;10.07;4.97;;;19.90;99.90;;;;;;5075559;28;20129;-70
2022/08/13 00:33:21;;;;;;;6.82;4.45;;;19.90;99.90;;;;;;5075512;28;20136;-69
2022/08/13 00:35:49;;;;;;;9.13;4.70;;;19.90;99.90;;;;;;5075882;28;20040;-67
2022/08/13 00:38:18;;;;;;;6.65;5.03;;;19.90;99.90;;;;;;5057738;28;20390;-69
2022/08/13 00:40:46;;;;;;;9.13;4.72;;;19.90;99.90;;;;;;5075320;28;20048;-70
2022/08/13 00:43:12;;;;;;;8.88;5.07;;;19.80;99.90;;;;;;5075360;28;20083;-71
2022/08/13 00:45:38;;;;;;;7.88;4.90;;;19.80;99.90;;;;;;5075297;28;20459;-69
2022/08/13 00:50:50;;;;;;;5.13;4.63;;;19.70;99.90;;;;;;5075099;28;20555;-69
2022/08/13 00:53:18;;;;;;;5.22;4.30;;;19.80;99.90;;;;;;5075149;28;20057;-70
2022/08/13 00:55:51;;;;;;;7.20;4.50;;;19.80;99.90;;;;;;5075346;28;20041;-71
2022/08/13 00:58:22;;;;;;;8.15;5.50;;;19.70;99.90;;;;;;5075141;28;20036;-70
2022/08/13 01:00:51;;;;;;;7.90;5.15;;;19.70;99.90;;;;;;5075317;28;20055;-69
2022/08/13 01:03:17;;;;;;;5.85;4.72;;;19.70;99.90;;;;;;5075251;28;20051;-68
2022/08/13 01:05:45;;;;;;;5.10;4.60;;;19.70;99.90;;;;;;5075275;28;20044;-67
2022/08/13 01:08:16;;;;;;;7.65;4.85;;;19.70;99.90;;;;;;5074802;28;20052;-67
2022/08/13 01:10:42;;;;;;;15.20;6.82;;;19.70;99.90;;;;;;5074855;28;20044;-68
2022/08/13 01:13:11;;;;;;;7.38;4.97;;;19.70;99.90;;;;;;5074920;28;20072;-69
2022/08/13 01:15:39;;;;;;;7.03;5.32;;;19.70;99.90;;;;;;5057066;28;20052;-69
2022/08/13 01:18:07;;;;;;;6.75;4.68;;;19.70;99.90;;;;;;5074887;28;20044;-70
2022/08/13 01:20:44;;;;;;;9.45;5.18;;;19.70;99.90;;;;;;5075028;28;20351;-69
2022/08/13 01:23:10;;;;;;;8.30;5.22;;;19.70;99.90;;;;;;5074937;28;20371;-69
2022/08/13 01:25:36;;;;;;;9.25;5.50;;;19.70;99.90;;;;;;5057314;28;20513;-72
2022/08/13 01:28:02;;;;;;;5.90;5.00;;;19.70;99.90;;;;;;5074812;28;20469;-69
2022/08/13 01:30:32;;;;;;;7.45;5.47;;;19.70;99.90;;;;;;5074971;28;20036;-69
2022/08/13 01:33:02;;;;;;;7.25;5.38;;;19.70;99.90;;;;;;5074864;28;20106;-68
2022/08/13 01:35:28;;;;;;;6.80;4.95;;;19.70;99.90;;;;;;5074969;28;20423;-68
2022/08/13 01:37:57;;;;;;;12.77;5.88;;;19.60;99.90;;;;;;5074811;28;20079;-68
2022/08/13 01:40:23;;;;;;;6.28;5.40;;;19.70;99.90;;;;;;5074766;28;20047;-69
2022/08/13 01:42:50;;;;;;;6.85;5.40;;;19.60;99.90;;;;;;5074812;28;20462;-70
2022/08/13 01:45:17;;;;;;;9.05;5.28;;;19.70;99.90;;;;;;5074364;28;20374;-71
2022/08/13 01:50:29;;;;;;;8.07;5.60;;;19.60;99.90;;;;;;5074245;28;20482;-67
2022/08/13 01:53:07;;;;;;;6.72;4.90;;;19.60;99.90;;;;;;5074919;28;20080;-71
2022/08/13 01:55:42;;;;;;;8.35;5.03;;;19.60;99.90;;;;;;5074690;28;20048;-70
2022/08/13 01:58:10;;;;;;;7.15;5.10;;;19.60;99.90;;;;;;5055692;28;20448;-69
2022/08/13 02:00:38;;;;;;;8.50;5.10;;;19.60;99.90;;;;;;5074435;28;20091;-69
2022/08/13 02:03:09;;;;;;;10.48;4.70;;;19.60;99.90;;;;;;5074704;28;20046;-69
2022/08/13 02:05:38;;;;;;;6.53;5.18;;;19.60;99.90;;;;;;5056548;28;20045;-69
2022/08/13 02:08:11;;;;;;;9.15;5.20;;;19.50;99.90;;;;;;5074482;28;20041;-71
2022/08/13 02:10:39;;;;;;;6.72;4.65;;;19.50;99.90;;;;;;5054470;28;20422;-70
2022/08/13 02:13:13;;;;;;;5.95;4.78;;;19.40;99.90;;;;;;5054382;28;20490;-68
2022/08/13 02:15:40;;;;;;;7.85;4.55;;;19.50;99.90;;;;;;5054462;28;20073;-69
2022/08/13 02:18:07;;;;;;;8.60;4.65;;;19.40;99.90;;;;;;5054646;28;20095;-70
2022/08/13 02:20:34;;;;;;;7.75;4.75;;;19.40;99.90;;;;;;5054738;28;20060;-67
2022/08/13 02:23:01;;;;;;;5.50;4.50;;;19.40;99.90;;;;;;5054313;28;20128;-70
2022/08/13 02:25:28;;;;;;;7.40;4.97;;;19.40;99.90;;;;;;5057924;28;20415;-69
2022/08/13 02:27:55;;;;;;;5.80;4.82;;;19.30;99.90;;;;;;5058058;28;20080;-68
2022/08/13 02:30:24;;;;;;;6.18;4.60;;;19.30;99.90;;;;;;5058047;28;20052;-68
2022/08/13 02:32:50;;;;;;;7.13;5.20;;;19.30;99.90;;;;;;5057824;28;20394;-69
2022/08/13 02:35:18;;;;;;;5.85;4.68;;;19.30;99.90;;;;;;5039889;28;20171;-70
2022/08/13 02:37:44;;;;;;;7.22;4.22;;;19.30;99.90;;;;;;5057928;28;20052;-70
2022/08/13 02:42:58;;;;;;;5.20;4.70;;;19.30;99.90;;;;;;5057680;28;20128;-70
2022/08/13 02:45:24;;;;;;;6.28;4.50;;;19.20;99.90;;;;;;5057308;28;20102;-68
2022/08/13 02:47:51;;;;;;;8.23;4.65;;;19.30;99.90;;;;;;5057507;28;20397;-68
2022/08/13 02:50:20;;;;;;;6.53;4.10;;;19.30;99.90;;;;;;5006115;28;20099;-71
2022/08/13 02:52:51;;;;;;;8.43;4.65;;;19.20;99.90;;;;;;5057521;28;20099;-71
2022/08/13 02:55:22;;;;;;;6.57;4.25;;;19.30;99.90;;;;;;5057439;28;20463;-69
2022/08/13 02:57:49;;;;;;;6.65;4.85;;;19.30;99.90;;;;;;5057341;28;20040;-68
2022/08/13 03:00:17;;;;;;;4.70;4.20;;;19.30;99.90;;;;;;5039965;28;20048;-68
2022/08/13 03:02:44;;;;;;;7.15;4.90;;;19.30;99.90;;;;;;5057241;28;20459;-69
2022/08/13 03:05:20;;;;;;;6.75;4.40;;;19.20;99.90;;;;;;5057191;28;20041;-70
2022/08/13 03:07:48;;;;;;;5.57;4.38;;;19.30;99.90;;;;;;5057132;28;20037;-67
2022/08/13 03:10:16;;;;;;;8.05;4.45;;;19.30;99.90;;;;;;5056739;28;20064;-69
2022/08/13 03:12:45;;;;;;;6.25;4.28;;;19.20;99.90;;;;;;5039651;28;20067;-68
2022/08/13 03:15:13;;;;;;;7.13;4.57;;;19.20;99.90;;;;;;5039297;28;20053;-68
2022/08/13 03:17:40;;;;;;;7.05;4.72;;;19.20;99.90;;;;;;5057132;28;20102;-68
2022/08/13 03:20:08;;;;;;;7.85;4.60;;;19.20;99.90;;;;;;5057062;28;20041;-70
2022/08/13 03:23:08;;;;;;;6.10;4.80;;;19.30;99.90;;;;;;5022994;28;20045;-68
2022/08/13 03:25:35;;;;;;;7.32;4.75;;;19.20;99.90;;;;;;5003244;28;20402;-69
2022/08/13 03:28:01;;;;;;;6.07;4.47;;;19.20;99.90;;;;;;5056447;28;20482;-69
2022/08/13 03:30:28;;;;;;;11.38;4.57;;;19.20;99.90;;;;;;5039384;28;20084;-70
2022/08/13 03:32:54;;;;;;;6.75;4.80;;;19.20;99.90;;;;;;5056961;28;20119;-69
2022/08/13 03:35:21;;;;;;;5.28;4.30;;;19.20;99.90;;;;;;5037587;28;20120;-69
2022/08/13 03:37:53;;;;;;;6.60;5.05;;;19.10;99.90;;;;;;5056817;28;20041;-68
2022/08/13 03:40:21;;;;;;;8.70;4.90;;;19.10;99.90;;;;;;5021663;28;20057;-69
2022/08/13 03:42:50;;;;;;;8.20;5.15;;;19.10;99.90;;;;;;5056570;28;20049;-71
2022/08/13 03:45:17;;;;;;;8.73;5.32;;;19.10;99.90;;;;;;5056568;28;20107;-69
2022/08/13 03:47:44;;;;;;;5.28;4.68;;;19.10;99.90;;;;;;5055953;28;20439;-70
2022/08/13 03:50:11;;;;;;;9.68;4.25;;;19.10;99.90;;;;;;5056413;28;20057;-69
2022/08/13 03:52:38;;;;;;;7.45;5.03;;;19.10;99.90;;;;;;5056214;28;20048;-67
2022/08/13 03:55:09;;;;;;;5.53;4.45;;;19.00;99.90;;;;;;5056130;28;20056;-68
2022/08/13 03:57:40;;;;;;;5.28;4.78;;;19.00;99.90;;;;;;5021160;28;20053;-70
2022/08/13 04:00:09;;;;;;;6.57;4.80;;;19.00;99.90;;;;;;5056164;28;20470;-71
2022/08/13 04:02:38;;;;;;;5.30;4.60;;;18.90;99.90;;;;;;5055892;28;20475;-69
2022/08/13 04:05:04;;;;;;;5.88;4.72;;;19.00;99.90;;;;;;5055724;28;20464;-70
2022/08/13 04:07:29;;;;;;;8.27;4.97;;;18.90;99.90;;;;;;5038077;28;20077;-67
2022/08/13 04:09:55;;;;;;;8.88;4.55;;;18.90;99.90;;;;;;5055808;28;20063;-69
2022/08/13 04:12:20;;;;;;;7.28;5.18;;;19.00;99.90;;;;;;5056093;28;20116;-68
2022/08/13 04:14:47;;;;;;;7.63;5.80;;;18.90;99.90;;;;;;5055773;28;20103;-66
2022/08/13 04:17:13;;;;;;;6.78;5.10;;;18.90;99.90;;;;;;5055841;28;20096;-70
2022/08/13 04:19:39;;;;;;;7.32;4.70;;;18.90;99.90;;;;;;5055401;28;20088;-67
2022/08/13 04:22:06;;;;;;;10.90;4.80;;;18.90;99.90;;;;;;5055516;28;20033;-67
2022/08/13 04:24:33;;;;;;;9.82;5.78;;;18.90;99.90;;;;;;5055699;28;20056;-69
2022/08/13 04:27:02;;;;;;;9.60;4.72;;;18.90;99.90;;;;;;5055838;28;20056;-68
2022/08/13 04:29:28;;;;;;;7.57;4.68;;;18.90;99.90;;;;;;5038088;28;20045;-69
2022/08/13 04:31:54;;;;;;;5.93;4.93;;;18.90;99.90;;;;;;5055597;28;20053;-69
2022/08/13 04:34:25;;;;;;;5.28;4.68;;;18.80;99.90;;;;;;5055349;28;20039;-69
2022/08/13 04:36:51;;;;;;;6.78;5.38;;;18.90;99.90;;;;;;5055511;28;20052;-70
2022/08/13 04:39:17;;;;;;;7.55;5.15;;;18.90;99.90;;;;;;5055277;28;20048;-67
2022/08/13 04:41:43;;;;;;;8.65;4.85;;;18.90;99.90;;;;;;5055630;28;20049;-70
2022/08/13 04:44:08;;;;;;;10.13;4.65;;;18.90;99.90;;;;;;5055337;28;20115;-67
2022/08/13 04:46:34;;;;;;;6.47;4.97;;;18.90;99.90;;;;;;5054734;28;20146;-68
2022/08/13 04:49:00;;;;;;;8.57;4.85;;;18.90;99.90;;;;;;5054906;28;20328;-68
2022/08/13 04:51:25;;;;;;;6.78;4.57;;;18.90;99.90;;;;;;5055040;28;20114;-69
2022/08/13 04:53:51;;;;;;;9.57;5.10;;;18.90;99.90;;;;;;5037760;28;20072;-69
2022/08/13 04:56:17;;;;;;;6.18;5.00;;;18.90;99.90;;;;;;5055199;28;20055;-67
2022/08/13 04:58:43;;;;;;;5.88;4.70;;;19.00;99.90;;;;;;5055166;28;20087;-71
2022/08/13 05:01:11;;;;;;;10.43;5.15;;;19.00;99.90;;;;;;5055141;28;20521;-69
2022/08/13 05:03:45;;;;;;;6.15;4.63;;;18.90;99.90;;;;;;5055033;28;20041;-70
2022/08/13 05:06:12;;;;;;;7.75;4.72;;;18.90;99.90;;;;;;5054974;28;20083;-67
2022/08/13 05:08:41;;;;;;;10.57;4.85;;;19.00;99.90;;;;;;5054791;28;20363;-68
2022/08/13 05:11:08;;;;;;;9.73;5.00;;;19.00;99.90;;;;;;5037426;28;20056;-68
2022/08/13 05:13:36;;;;;;;6.18;4.97;;;18.90;99.90;;;;;;5054819;28;20367;-68
2022/08/13 05:16:04;;;;;;;8.23;5.28;;;19.00;99.90;;;;;;5054672;28;20041;-70
2022/08/13 05:18:31;;;;;;;8.45;4.90;;;19.00;99.90;;;;;;5054843;28;20045;-69
2022/08/13 05:20:59;;;;;;;7.30;5.40;;;19.00;99.90;;;;;;5054813;28;20055;-71
2022/08/13 05:23:25;;;;;;;10.80;5.65;;;19.00;99.90;;;;;;5054360;28;20041;-69
2022/08/13 05:25:52;;;;;;;7.72;4.88;;;19.10;99.90;;;;;;5054958;28;20574;-69
2022/08/13 05:28:18;;;;;;;11.68;5.65;;;19.10;99.90;;;;;;5054620;28;20512;-70
2022/08/13 05:30:47;;;;;;;5.97;4.30;;;19.10;99.90;;;;;;5054720;28;20135;-71
2022/08/13 05:33:16;;;;;;;7.78;4.90;;;19.10;99.90;;;;;;5037316;28;20037;-68
2022/08/13 05:35:44;;;;;;;5.47;4.32;;;19.20;99.90;;;;;;5054804;28;20060;-67
2022/08/13 05:38:10;;;;;;;7.38;4.97;;;19.20;99.90;;;;;;5054187;28;20056;-67
2022/08/13 05:40:38;;;;;;;10.27;4.90;;;19.20;99.90;;;;;;5054509;28;20146;-68
2022/08/13 05:43:15;;;;;;;13.50;5.70;;;19.20;99.90;;;;;;5054475;28;20115;-69
2022/08/13 05:45:42;;;;;;;7.25;4.63;;;19.30;99.90;;;;;;5054615;28;20123;-67
2022/08/13 05:48:09;;;;;;;7.38;4.57;;;19.30;99.90;;;;;;5054619;28;20130;-70
2022/08/13 05:50:35;;;;;;;9.13;4.60;;;19.30;99.90;;;;;;5036929;28;20037;-70
2022/08/13 05:53:05;;;;;;;8.45;4.63;;;19.30;99.90;;;;;;5036771;28;20431;-69
2022/08/13 05:55:32;;;;;;;9.35;4.82;;;19.40;99.90;;;;;;5054526;28;20136;-70
2022/08/13 05:57:57;;;;;;;10.65;5.00;;;19.40;99.90;;;;;;5054289;28;20363;-68
2022/08/13 06:03:24;;;;;;;9.52;4.20;;;19.50;99.90;;;;;;5058693;28;20132;-68
2022/08/13 06:05:53;;;;;;;7.10;4.07;;;19.50;99.90;;;;;;5058200;28;20545;-70
2022/08/13 06:08:31;;;;;;;4.97;4.07;;;19.60;99.90;;;;;;5040041;28;20084;-68
2022/08/13 06:11:01;;;;;;;5.93;3.92;;;19.60;99.90;;;;;;5058324;28;20048;-66
2022/08/13 06:13:28;;;;;;;6.78;3.63;;;19.70;99.90;;;;;;5058215;28;20098;-69
2022/08/13 06:15:58;;;;;;;9.73;3.80;;;19.80;99.90;;;;;;5058209;28;20037;-68
2022/08/13 06:18:31;;;;;;;8.13;4.53;;;19.80;99.90;;;;;;5057854;28;20040;-71
2022/08/13 06:21:00;;;;;;;7.95;4.50;;;19.90;99.90;;;;;;5057803;28;20055;-70
2022/08/13 06:23:28;;;;;;;10.27;4.57;;;20.00;99.90;;;;;;5058008;28;20041;-67
2022/08/13 06:25:54;;;;;;;6.95;4.90;;;20.00;99.90;;;;;;5040584;28;20067;-68
2022/08/13 06:28:23;;;;;;;8.20;4.70;;;20.20;99.90;;;;;;5058068;28;20069;-69
2022/08/13 06:30:50;;;;;;;5.45;4.43;;;20.20;99.90;;;;;;5057820;28;20440;-70
2022/08/13 06:33:20;;;;;;;8.68;5.20;;;20.30;99.90;;;;;;5040585;28;20144;-68
2022/08/13 06:35:49;;;;;;;7.47;4.70;;;20.40;99.90;;;;;;5057563;28;20435;-69
2022/08/13 06:38:17;;;;;;;7.07;4.55;;;20.40;99.90;;;;;;5057865;28;20052;-67
2022/08/13 06:40:44;;;;;;;7.40;4.25;;;20.50;99.90;;;;;;5057959;28;20045;-67
2022/08/13 06:43:11;;;;;;;6.10;4.28;;;20.60;99.90;;;;;;5057570;28;20102;-68
2022/08/13 06:45:37;;;;;;;7.85;4.18;;;20.70;99.90;;;;;;5057510;28;20052;-68
2022/08/13 06:48:03;;;;;;;8.07;4.55;;;20.80;99.90;;;;;;5039932;28;20064;-68
2022/08/13 06:50:34;;;;;;;9.70;4.88;;;20.90;99.90;;;;;;5057613;28;20080;-69
2022/08/13 06:53:03;;;;;;;8.27;4.15;;;21.00;99.90;;;;;;5057388;28;20110;-69
2022/08/13 06:55:29;;;;;;;6.47;4.60;;;21.10;99.90;;;;;;5057612;28;20049;-67
2022/08/13 06:57:56;;;;;;;10.25;5.25;;;21.20;99.90;;;;;;5057254;28;20060;-69
2022/08/13 07:00:25;;;;;;;7.47;4.75;;;21.30;99.90;;;;;;5056879;28;20471;-70
2022/08/13 07:02:52;;;;;;;8.65;4.32;;;21.40;99.90;;;;;;5057205;28;20041;-71
2022/08/13 07:05:18;;;;;;;6.72;4.30;;;21.60;99.90;;;;;;5057372;28;20119;-67
2022/08/13 07:07:45;;;;;;;7.70;4.40;;;21.70;99.90;;;;;;5057209;28;20124;-70
2022/08/13 07:10:14;;;;;;;7.78;4.13;;;21.80;99.90;;;;;;5056770;28;20060;-70
2022/08/13 07:12:41;;;;;;;6.05;4.35;;;21.90;99.90;;;;;;5057022;28;20155;-68
2022/08/13 07:15:15;;;;;;;5.18;4.13;;;22.00;99.90;;;;;;5056963;28;20045;-68
2022/08/13 07:17:42;;;;;;;;;;;22.10;99.90;;;;;;5057504;28;20102;-69
2022/08/13 07:20:10;;;;;;;9.07;4.18;;;22.20;99.90;;;;;;5056703;28;19928;-68
2022/08/13 07:22:35;;;;;;;6.72;3.88;;;22.30;99.90;;;;;;5039496;28;20036;-68
2022/08/13 07:25:03;;;;;;;9.50;4.55;;;22.40;99.90;;;;;;5056959;28;20056;-68
2022/08/13 07:27:30;;;;;;;5.15;3.30;;;22.50;99.90;;;;;;5056804;28;20374;-69
2022/08/13 07:29:56;;;;;;;6.47;3.45;;;22.60;99.90;;;;;;5056569;28;20453;-68
2022/08/13 07:32:24;;;;;;;5.50;3.45;;;22.60;99.90;;;;;;5057077;28;20051;-70
2022/08/13 07:34:49;;;;;;;7.00;3.80;;;22.70;99.90;;;;;;5056778;28;20049;-69
2022/08/13 07:37:22;;;;;;;6.55;3.40;;;22.80;99.90;;;;;;5056773;28;20047;-70
2022/08/13 07:39:48;;;;;;;5.10;2.90;;;22.90;99.90;;;;;;5056612;28;20072;-70
2022/08/13 07:42:19;;;;;;;5.07;3.25;;;23.00;99.90;;;;;;5056612;28;20451;-69
2022/08/13 07:44:48;;;;;;;4.68;3.60;;;23.10;99.90;;;;;;5056697;28;20049;-70
2022/08/13 07:47:15;;;;;;;6.18;4.05;;;23.20;99.90;;;;;;5038937;28;20189;-69
2022/08/13 07:49:41;;;;;;;5.07;3.70;;;23.30;99.60;;;;;;5056491;28;20048;-70
2022/08/13 07:52:09;;;;;;;3.90;3.50;;;23.40;99.80;;;;;;5056420;28;20076;-70
2022/08/13 07:54:35;;;;;;;5.82;3.33;;;23.50;99.90;;;;;;5038829;28;20057;-70
2022/08/13 07:57:01;;;;;;;4.47;3.25;;;23.60;99.10;;;;;;5056034;28;20056;-68
2022/08/13 07:59:26;;;;;;;6.95;3.10;;;23.60;98.30;;;;;;5056176;28;20375;-68
2022/08/13 08:01:53;;;;;;;10.15;3.63;;;23.80;98.40;;;;;;5038611;28;20132;-69
2022/08/13 08:04:21;;;;;;;6.18;3.30;;;23.80;98.30;;;;;;5056145;28;20359;-69
2022/08/13 08:06:48;;;;;;;8.55;3.70;;;23.90;98.00;;;;;;5055809;28;20045;-70
2022/08/13 08:09:22;;;;;;;4.75;3.28;;;24.00;97.70;;;;;;5055935;28;20107;-72
2022/08/13 08:14:37;;;;;;;8.32;3.50;;;24.30;97.10;;;;;;5056044;28;20497;-68
2022/08/13 08:17:05;;;;;;;6.10;3.33;;;24.40;97.10;;;;;;5055913;28;20037;-71
2022/08/13 08:19:31;;;;;;;3.50;3.20;;;24.50;96.40;;;;;;5056037;28;20060;-69
2022/08/13 08:21:58;;;;;;;5.50;3.22;;;24.50;96.70;;;;;;5055254;28;20398;-69
2022/08/13 08:24:26;;;;;;;4.32;3.50;;;24.70;96.00;;;;;;5055859;28;20404;-69
2022/08/13 08:26:55;;;;;;;6.95;3.50;;;24.90;96.10;;;;;;5055880;28;20051;-67
2022/08/13 08:29:21;;;;;;;4.45;3.28;;;25.00;95.80;;;;;;5055766;28;20049;-69
2022/08/13 08:31:50;;;;;;;4.50;2.90;;;25.10;96.00;;;;;;5055719;28;20048;-69
2022/08/13 08:34:18;;;;;;;3.30;3.00;;;25.10;95.80;;;;;;5037950;28;20053;-70
2022/08/13 08:36:44;;;;;;;5.32;3.10;;;25.10;94.80;;;;;;5055476;28;20112;-71
2022/08/13 08:44:44;;;;;;;4.18;3.15;;;25.40;94.10;;;;;;5055171;28;20061;-70
2022/08/13 08:47:11;;;;;;;4.88;2.75;;;25.50;94.60;;;;;;5055211;28;20414;-71
2022/08/13 08:49:39;;;;;;;5.40;2.95;;;25.60;93.90;;;;;;5038180;28;20060;-69
2022/08/13 08:52:05;;;;;;;3.35;2.80;;;25.60;94.10;;;;;;5055398;28;20045;-69
2022/08/13 08:54:32;;;;;;;2.70;2.50;;;25.70;93.40;;;;;;5038024;28;20071;-68
2022/08/13 08:56:58;;;;;;;4.45;2.65;;;25.70;93.10;;;;;;5054695;28;20463;-69
2022/08/13 08:59:26;;;;;;;6.90;2.83;;;25.70;92.60;;;;;;5020824;28;20131;-69
2022/08/13 09:01:55;;;;;;;3.85;2.50;;;25.80;92.20;;;;;;5037549;28;20052;-68
2022/08/13 09:04:32;;;;;;;6.60;2.60;;;25.90;92.00;;;;;;5037762;28;20049;-71
2022/08/13 09:06:58;;;;;;;9.32;2.97;;;25.80;92.00;;;;;;5055248;28;20056;-71
2022/08/13 09:09:25;;;;;;;2.70;2.50;;;25.90;92.10;;;;;;5036874;28;20388;-69
2022/08/13 09:11:55;;;;;;;6.68;2.67;;;25.90;91.50;;;;;;5055002;28;20061;-71
2022/08/13 09:14:30;;;;;;;2.92;2.40;;;26.00;91.10;;;;;;5054844;28;20447;-68
2022/08/13 09:16:58;;;;;;;5.50;2.80;;;25.90;90.30;;;;;;5037951;28;20053;-72
2022/08/13 09:19:24;;;;;;;3.85;3.05;;;26.10;90.50;;;;;;5055074;28;20040;-71
2022/08/13 09:21:51;;;;;;;6.90;2.83;;;26.10;90.70;;;;;;5054928;28;20063;-71
2022/08/13 09:24:17;;;;;;;4.47;2.90;;;26.10;90.90;;;;;;5054822;28;20063;-69
2022/08/13 09:26:48;;;;;;;4.28;2.85;;;26.20;91.30;;;;;;5036921;28;20037;-71
2022/08/13 09:29:17;;;;;;;3.83;2.33;;;26.10;91.60;;;;;;5054713;28;20049;-72
2022/08/13 09:31:56;;;;;;;6.40;2.75;;;26.20;91.40;;;;;;5054905;28;20049;-69
2022/08/13 09:34:22;;;;;;;6.80;2.75;;;26.20;90.80;;;;;;5040692;28;20063;-69
2022/08/13 09:36:53;;;;;;;4.10;2.60;;;26.20;90.60;;;;;;5058970;28;20037;-71
2022/08/13 09:39:35;;;;;;;4.55;3.30;;;26.20;90.50;;;;;;5059097;28;20198;-70
2022/08/13 09:42:08;;;;;;;5.75;2.50;;;26.20;90.90;;;;;;5059088;28;20040;-68
2022/08/13 09:44:41;;;;;;;4.78;3.35;;;26.20;90.60;;;;;;5058893;28;20459;-69
2022/08/13 09:47:10;;;;;;;7.97;2.95;;;26.30;90.40;;;;;;5058732;28;20041;-68
2022/08/13 09:49:36;;;;;;;5.85;2.80;;;26.30;90.50;;;;;;5058679;28;20051;-72
2022/08/13 09:52:02;;;;;;;9.05;2.97;;;26.30;90.60;;;;;;5058634;28;20063;-71
2022/08/13 09:54:27;;;;;;;8.07;2.97;;;26.40;90.50;;;;;;5041119;28;20132;-70
2022/08/13 09:56:58;;;;;;;6.75;2.75;;;26.40;90.10;;;;;;5041411;28;20059;-72
2022/08/13 09:59:23;;;;;;;4.05;2.70;;;26.50;90.30;;;;;;5058209;28;20045;-71
2022/08/13 10:01:50;;;;;;;5.85;2.72;;;26.50;89.40;;;;;;5041358;28;20108;-71
2022/08/13 10:04:18;;;;;;;5.32;3.08;;;26.50;89.80;;;;;;5058572;28;20049;-71
2022/08/13 10:06:45;;;;;;;9.18;2.42;;;26.60;90.00;;;;;;5058464;28;20463;-69
2022/08/13 10:09:12;;;;;;;4.03;3.10;;;26.60;89.90;;;;;;5024237;28;20061;-71
2022/08/13 10:11:38;;;;;;;5.65;2.67;;;26.50;89.30;;;;;;5058375;28;20045;-68
2022/08/13 10:14:03;;;;;;;2.95;2.53;;;26.50;89.60;;;;;;5058213;28;20132;-69
2022/08/13 10:16:29;;;;;;;5.47;2.70;;;26.60;89.80;;;;;;5058110;28;20041;-69
2022/08/13 10:18:55;;;;;;;2.90;2.42;;;26.60;89.20;;;;;;5058272;28;20091;-72
2022/08/13 10:21:21;;;;;;;4.65;2.80;;;26.70;88.30;;;;;;5058094;28;20051;-70
2022/08/13 10:23:47;;;;;;;6.53;2.90;;;26.70;88.10;;;;;;5058193;28;20354;-69
2022/08/13 10:26:17;;;;;;;5.75;2.80;;;26.70;88.40;;;;;;5058220;28;20419;-69
2022/08/13 10:28:42;;;;;;;3.58;2.50;;;26.70;87.60;;;;;;5057898;28;20049;-69
2022/08/13 10:31:09;;;;;;;5.70;2.50;;;26.80;85.90;;;;;;5057893;28;20136;-68
2022/08/13 10:33:37;;;;;;;3.38;2.67;;;26.80;85.70;;;;;;5057912;28;20123;-68
2022/08/13 10:36:05;;;;;;;4.20;2.50;;;26.80;85.80;;;;;;5057943;28;20087;-71
2022/08/13 10:38:32;;;;;;;4.57;2.72;;;26.80;86.80;;;;;;5057989;28;20052;-72
2022/08/13 10:41:00;;;;;;;3.28;2.50;;;26.80;85.60;;;;;;5057777;28;20080;-70
2022/08/13 10:43:26;;;;;;;4.10;2.38;;;26.80;85.30;;;;;;5057610;28;20122;-70
2022/08/13 10:45:59;;;;;;;3.20;2.53;;;26.90;84.30;;;;;;5056882;28;20048;-70
2022/08/13 10:48:26;;;;;;;4.73;2.47;;;26.90;83.70;;;;;;5057439;28;20057;-68
2022/08/13 10:50:53;;;;;;;4.05;2.60;;;26.90;84.00;;;;;;5057828;28;20045;-68
2022/08/13 10:56:04;;;;;;;4.20;2.42;;;27.00;82.40;;;;;;5057451;28;20111;-71
2022/08/13 10:58:30;;;;;;;3.40;2.45;;;27.20;81.70;;;;;;5057530;28;20041;-68
2022/08/13 11:00:56;;;;;;;3.10;2.33;;;27.20;81.40;;;;;;5057278;28;20049;-69
2022/08/13 11:03:22;;;;;;;4.50;2.47;;;27.30;81.20;;;;;;5057495;28;20053;-69
2022/08/13 11:05:48;;;;;;;3.15;2.47;;;27.40;80.80;;;;;;5057525;28;20479;-71
2022/08/13 11:08:14;;;;;;;5.45;3.10;;;27.60;80.50;;;;;;5057269;28;20347;-70
2022/08/13 11:10:40;;;;;;;10.77;2.85;;;27.60;80.60;;;;;;5057442;28;20053;-70
2022/08/13 11:13:05;;;;;;;3.35;2.55;;;27.60;80.80;;;;;;5057102;28;20060;-72
2022/08/13 11:15:33;;;;;;;3.67;2.35;;;27.60;80.90;;;;;;5039418;28;20080;-68
2022/08/13 11:17:59;;;;;;;4.32;2.38;;;27.60;80.60;;;;;;5039703;28;20041;-71
2022/08/13 11:20:27;;;;;;;5.35;2.70;;;27.60;80.70;;;;;;5057133;28;20447;-70
2022/08/13 11:22:54;;;;;;;5.03;2.50;;;27.60;80.80;;;;;;5056804;28;20413;-71
2022/08/13 11:25:21;;;;;;;3.20;2.60;;;27.70;80.30;;;;;;5056974;28;20351;-71
2022/08/13 11:27:48;;;;;;;5.22;2.92;;;27.70;80.50;;;;;;5056869;28;20131;-72
2022/08/13 11:30:16;;;;;;;6.68;2.80;;;27.80;80.20;;;;;;5057074;28;20041;-70
2022/08/13 11:32:42;;;;;;;6.53;2.38;;;27.90;79.20;;;;;;5056940;28;20434;-69
2022/08/13 11:35:09;;;;;;;2.53;2.33;;;27.90;77.60;;;;;;5056782;28;20049;-71
2022/08/13 11:37:35;;;;;;;4.82;2.35;;;28.00;77.80;;;;;;5056679;28;20037;-69
2022/08/13 11:40:03;;;;;;;3.90;2.90;;;28.00;76.60;;;;;;5056899;28;20405;-70
2022/08/13 11:42:32;;;;;;;6.07;2.40;;;27.90;77.30;;;;;;5056681;28;20037;-69
2022/08/13 11:44:57;;;;;;;3.15;2.58;;;28.00;77.10;;;;;;5056699;28;20095;-70
2022/08/13 11:47:24;;;;;;;6.43;2.58;;;28.00;77.20;;;;;;5056722;28;20088;-71
2022/08/13 11:49:49;;;;;;;2.78;2.58;;;28.20;76.30;;;;;;5056634;28;20103;-71
2022/08/13 11:52:15;;;;;;;4.53;2.40;;;28.20;76.60;;;;;;5039248;28;20502;-70
2022/08/13 11:54:40;;;;;;;6.28;3.28;;;28.20;76.10;;;;;;5038966;28;20443;-70
2022/08/13 11:57:07;;;;;;;3.65;2.22;;;28.30;76.40;;;;;;5055157;28;20055;-69
2022/08/13 11:59:32;;;;;;;4.75;2.55;;;28.40;76.30;;;;;;5056181;28;20037;-72
2022/08/13 12:01:58;;;;;;;2.92;2.50;;;28.50;76.70;;;;;;5056549;28;20052;-72
2022/08/13 12:04:24;;;;;;;5.80;2.70;;;28.50;75.60;;;;;;5056220;28;20128;-71
2022/08/13 12:06:50;;;;;;;4.03;2.38;;;28.60;76.10;;;;;;5056023;28;20055;-70
2022/08/13 12:09:17;;;;;;;4.03;2.58;;;28.60;75.50;;;;;;5055803;28;20371;-68
2022/08/13 12:11:43;;;;;;;4.82;2.50;;;28.60;75.40;;;;;;5056180;28;20063;-71
2022/08/13 12:14:09;;;;;;;3.45;2.20;;;28.70;75.90;;;;;;5056051;28;20447;-70
2022/08/13 12:16:34;;;;;;;4.40;2.60;;;28.70;74.80;;;;;;5038233;28;20088;-72
2022/08/13 12:19:00;;;;;;;3.75;2.22;;;28.80;74.80;;;;;;5055839;28;20041;-70
2022/08/13 12:21:27;;;;;;;7.07;2.90;;;28.90;73.90;;;;;;5055881;28;20128;-70
2022/08/13 12:23:52;;;;;;;3.33;2.33;;;29.00;74.30;;;;;;5055714;28;20053;-69
2022/08/13 12:26:18;;;;;;;2.47;2.17;;;29.20;74.90;;;;;;5038598;28;20447;-70
2022/08/13 12:28:44;;;;;;;6.43;2.50;;;29.20;74.70;;;;;;5055637;28;20132;-69
2022/08/13 12:31:09;;;;;;;4.75;2.95;;;29.30;74.20;;;;;;5055945;28;20049;-69
2022/08/13 12:33:36;;;;;;;2.90;2.30;;;29.50;73.40;;;;;;5055680;28;20080;-70
2022/08/13 12:36:02;;;;;;;6.90;2.30;;;29.50;73.00;;;;;;5055630;28;20079;-69
2022/08/13 12:38:29;;;;;;;2.83;1.95;;;29.70;72.70;;;;;;5055513;28;20052;-70
2022/08/13 12:40:55;;;;;;;3.38;2.50;;;30.10;71.20;;;;;;5055395;28;20171;-71
2022/08/13 12:43:21;;;;;;;2.38;2.10;;;30.20;70.30;;;;;;5055320;28;20457;-72
2022/08/13 12:45:46;;;;;;;3.55;2.22;;;30.50;70.60;;;;;;5055501;28;20037;-69
2022/08/13 12:48:17;;;;;;;2.83;1.90;;;30.90;69.50;;;;;;5037542;28;20127;-69
2022/08/13 12:50:48;;;;;;;2.30;2.10;;;31.40;69.10;;;;;;5055407;28;20086;-70
2022/08/13 12:53:16;;;;;;;4.55;2.10;;;31.60;67.90;;;;;;5055557;28;20040;-73
2022/08/13 12:55:44;;;;;;;3.22;2.55;;;32.20;68.20;;;;;;5055248;28;20053;-71
2022/08/13 12:58:17;;;;;;;3.30;2.30;;;32.60;66.80;;;;;;5055499;28;20045;-71
2022/08/13 13:00:46;;;;;;;3.00;2.17;;;33.10;66.70;;;;;;5055329;28;20041;-71
2022/08/13 13:03:13;;;;;;;4.60;2.55;;;33.30;67.50;;;;;;5055114;28;20063;-70
2022/08/13 13:05:41;;;;;;;4.93;2.40;;;33.40;65.70;;;;;;5055107;28;20048;-71
2022/08/13 13:08:21;;;;;;;3.70;2.35;;;33.90;66.20;;;;;;5054794;28;20041;-70
2022/08/13 13:10:48;;;;;;;3.47;2.30;;;34.40;65.70;;;;;;5055025;28;20049;-73